createdAt,value
2018-09-10T00:00:46.766Z,7.60
2018-09-10T00:03:18.626Z,7.00
2018-09-10T00:05:50.127Z,7.10
2018-09-10T00:08:21.331Z,7.47
2018-09-10T00:10:52.779Z,7.37
2018-09-10T00:13:24.071Z,6.87
2018-09-10T00:15:56.052Z,6.93
2018-09-10T00:18:27.250Z,6.80
2018-09-10T00:20:58.291Z,6.80
2018-09-10T00:23:29.622Z,7.40
2018-09-10T00:26:01.503Z,6.63
2018-09-10T00:34:06.324Z,6.67
2018-09-10T00:37:19.072Z,7.13
2018-09-10T00:43:12.636Z,7.13
2018-09-10T00:45:44.577Z,7.73
2018-09-10T00:49:50.968Z,6.87
2018-09-10T00:58:04.647Z,7.50
2018-09-10T01:01:41.172Z,7.40
2018-09-10T01:13:02.804Z,7.30
2018-09-10T01:20:53.294Z,6.93
2018-09-10T01:23:45.071Z,6.57
2018-09-10T01:26:18.495Z,6.53
2018-09-10T01:28:49.643Z,6.57
2018-09-10T01:31:20.815Z,7.10
2018-09-10T01:33:56.759Z,6.60
2018-09-10T01:36:27.920Z,6.93
2018-09-10T01:38:59.334Z,6.90
2018-09-10T01:41:30.657Z,7.00
2018-09-10T01:44:01.938Z,6.70
2018-09-10T01:46:33.491Z,6.90
2018-09-10T01:49:04.907Z,7.17
2018-09-10T01:51:36.236Z,7.63
2018-09-10T01:54:07.754Z,7.03
2018-09-10T01:56:39.035Z,6.57
2018-09-10T01:59:10.025Z,7.33
2018-09-10T02:01:41.184Z,7.23
2018-09-10T02:04:12.590Z,7.63
2018-09-10T02:06:43.775Z,7.40
2018-09-10T02:09:15.076Z,7.53
2018-09-10T02:11:46.325Z,7.13
2018-09-10T02:14:17.527Z,7.63
2018-09-10T02:16:48.752Z,7.87
2018-09-10T02:19:20.115Z,7.90
2018-09-10T02:21:51.260Z,8.03
2018-09-10T02:24:22.387Z,7.77
2018-09-10T02:26:53.535Z,7.30
2018-09-10T02:29:24.682Z,7.33
2018-09-10T02:31:56.171Z,7.23
2018-09-10T02:34:27.541Z,7.70
2018-09-10T02:36:58.689Z,7.60
2018-09-10T02:39:29.833Z,7.40
2018-09-10T02:42:00.832Z,7.87
2018-09-10T02:44:32.055Z,7.33
2018-09-10T02:47:03.057Z,7.33
2018-09-10T02:49:34.238Z,7.43
2018-09-10T02:52:06.679Z,7.73
2018-09-10T02:54:38.270Z,8.43
2018-09-10T02:57:09.719Z,7.90
2018-09-10T02:59:41.239Z,7.67
2018-09-10T03:02:12.542Z,7.53
2018-09-10T03:04:45.910Z,8.23
2018-09-10T03:07:17.271Z,8.00
2018-09-10T03:09:48.273Z,8.30
2018-09-10T03:12:19.315Z,8.40
2018-09-10T03:14:50.719Z,8.60
2018-09-10T03:17:22.724Z,8.30
2018-09-10T03:19:54.119Z,8.20
2018-09-10T03:22:25.279Z,8.50
2018-09-10T03:24:56.618Z,8.50
2018-09-10T03:27:27.752Z,8.90
2018-09-10T03:29:59.372Z,8.77
2018-09-10T03:32:30.554Z,8.07
2018-09-10T03:35:01.820Z,8.83
2018-09-10T03:37:33.479Z,9.23
2018-09-10T03:40:04.866Z,9.20
2018-09-10T03:42:36.123Z,9.10
2018-09-10T03:45:07.429Z,9.27
2018-09-10T03:47:38.710Z,9.87
2018-09-10T03:50:09.906Z,9.17
2018-09-10T03:52:41.102Z,9.50
2018-09-10T03:55:12.567Z,9.97
2018-09-10T03:57:44.159Z,9.80
2018-09-10T04:00:15.499Z,9.77
2018-09-10T04:02:47.114Z,10.27
2018-09-10T04:05:18.649Z,10.87
2018-09-10T04:07:51.250Z,10.57
2018-09-10T04:10:22.388Z,10.60
2018-09-10T04:12:53.363Z,11.10
2018-09-10T04:15:24.592Z,10.97
2018-09-10T04:17:55.551Z,10.83
2018-09-10T04:20:26.770Z,12.00
2018-09-10T04:22:57.743Z,11.23
2018-09-10T04:25:29.186Z,12.20
2018-09-10T04:28:40.389Z,12.50
2018-09-10T04:39:50.692Z,13.50
2018-09-10T04:47:06.379Z,15.40
2018-09-10T05:02:50.996Z,14.47
2018-09-10T05:19:46.183Z,18.07
2018-09-10T05:33:41.818Z,18.07
2018-09-10T05:49:05.152Z,18.77
2018-09-10T05:56:13.043Z,19.63
2018-09-10T06:16:22.095Z,21.07
2018-09-10T06:38:27.467Z,18.20
2018-09-10T06:41:36.463Z,17.80
2018-09-10T06:44:38.535Z,17.70
2018-09-10T06:47:22.338Z,18.20
2018-09-10T06:50:17.532Z,18.47
2018-09-10T06:52:53.323Z,17.70
2018-09-10T06:55:31.523Z,17.30
2018-09-10T06:58:13.133Z,17.67
2018-09-10T07:00:59.183Z,16.87
2018-09-10T07:03:43.824Z,17.00
2018-09-10T07:06:29.742Z,16.97
2018-09-10T07:09:20.747Z,16.70
2018-09-10T07:12:00.282Z,15.83
2018-09-10T07:14:36.597Z,15.17
2018-09-10T07:17:25.863Z,16.13
2018-09-10T07:20:11.223Z,16.20
2018-09-10T07:22:52.419Z,16.87
2018-09-10T07:25:40.187Z,16.53
2018-09-10T07:28:11.539Z,17.47
2018-09-10T07:30:42.753Z,16.83
2018-09-10T07:33:14.879Z,16.63
2018-09-10T07:35:46.475Z,17.00
2018-09-10T07:38:17.719Z,16.17
2018-09-10T07:40:49.071Z,16.83
2018-09-10T07:43:20.734Z,16.33
2018-09-10T07:45:52.634Z,16.00
2018-09-10T07:48:24.030Z,16.00
2018-09-10T07:50:55.216Z,16.60
2018-09-10T07:53:26.612Z,17.40
2018-09-10T07:55:58.022Z,16.73
2018-09-10T07:58:29.225Z,16.17
2018-09-10T08:01:00.369Z,17.10
2018-09-10T08:03:31.450Z,17.70
2018-09-10T08:06:02.663Z,17.07
2018-09-10T08:08:34.250Z,15.90
2018-09-10T08:11:05.712Z,15.47
2018-09-10T08:13:37.027Z,16.90
2018-09-10T08:16:08.065Z,16.23
2018-09-10T08:18:39.561Z,16.17
2018-09-10T08:21:10.583Z,16.23
2018-09-10T08:23:41.596Z,16.23
2018-09-10T08:26:12.792Z,14.80
2018-09-10T08:28:43.832Z,16.03
2018-09-10T08:31:14.763Z,15.73
2018-09-10T08:33:46.267Z,16.27
2018-09-10T08:36:17.551Z,17.50
2018-09-10T08:38:49.027Z,16.97
2018-09-10T08:41:20.403Z,17.10
2018-09-10T08:43:51.707Z,16.67
2018-09-10T08:46:22.740Z,16.23
2018-09-10T08:48:54.366Z,16.87
2018-09-10T08:51:25.916Z,17.50
2018-09-10T08:53:57.617Z,17.53
2018-09-10T08:56:29.127Z,17.83
2018-09-10T08:59:00.867Z,17.17
2018-09-10T09:01:34.076Z,16.23
2018-09-10T09:04:06.499Z,15.77
2018-09-10T09:06:38.616Z,17.83
2018-09-10T09:09:11.087Z,16.17
2018-09-10T09:11:44.693Z,17.53
2018-09-10T09:14:24.391Z,17.27
2018-09-10T09:16:56.178Z,16.57
2018-09-10T09:19:29.595Z,16.70
2018-09-10T09:22:06.742Z,15.70
2018-09-10T09:24:38.679Z,16.87
2018-09-10T09:27:10.812Z,17.13
2018-09-10T09:29:42.186Z,15.70
2018-09-10T09:32:13.796Z,15.90
2018-09-10T09:34:49.911Z,14.27
2018-09-10T09:37:27.095Z,14.63
2018-09-10T09:40:04.148Z,15.97
2018-09-10T09:42:40.339Z,14.73
2018-09-10T09:45:16.447Z,14.83
2018-09-10T09:47:50.564Z,14.80
2018-09-10T09:50:21.967Z,14.70
2018-09-10T09:52:53.260Z,14.23
2018-09-10T09:55:24.371Z,14.23
2018-09-10T09:57:55.727Z,13.37
2018-09-10T10:00:32.246Z,14.20
2018-09-10T10:04:09.400Z,13.70
2018-09-10T10:06:41.641Z,12.30
2018-09-10T10:09:13.257Z,12.97
2018-09-10T10:11:44.688Z,13.47
2018-09-10T10:14:16.024Z,12.90
2018-09-10T10:16:47.264Z,13.13
2018-09-10T10:19:18.431Z,14.20
2018-09-10T10:21:50.054Z,12.53
2018-09-10T10:24:21.216Z,12.47
2018-09-10T10:26:52.392Z,12.57
2018-09-10T10:29:23.992Z,11.97
2018-09-10T10:31:55.331Z,11.67
2018-09-10T10:34:26.592Z,11.03
2018-09-10T10:36:57.826Z,12.10
2018-09-10T10:39:28.915Z,11.43
2018-09-10T10:42:00.339Z,10.53
2018-09-10T10:44:31.695Z,11.63
2018-09-10T10:47:03.076Z,10.80
2018-09-10T10:49:34.690Z,11.40
2018-09-10T10:52:06.434Z,11.33
2018-09-10T10:54:38.868Z,11.30
2018-09-10T10:57:10.051Z,11.43
2018-09-10T10:59:41.162Z,10.47
2018-09-10T11:02:12.508Z,10.70
2018-09-10T11:04:43.687Z,10.40
2018-09-10T11:07:14.930Z,11.23
2018-09-10T11:09:46.052Z,10.90
2018-09-10T11:12:17.296Z,10.43
2018-09-10T11:14:48.265Z,10.13
2018-09-10T11:17:25.878Z,10.13
2018-09-10T11:19:57.151Z,9.97
2018-09-10T11:22:28.322Z,10.47
2018-09-10T11:24:59.521Z,9.23
2018-09-10T11:27:30.709Z,10.00
2018-09-10T11:30:01.910Z,9.30
2018-09-10T11:32:33.050Z,8.70
2018-09-10T11:35:04.119Z,8.63
2018-09-10T11:37:35.523Z,9.37
2018-09-10T11:40:07.050Z,8.57
2018-09-10T11:42:38.232Z,8.93
2018-09-10T11:45:09.473Z,8.77
2018-09-10T11:47:40.819Z,8.03
2018-09-10T11:50:11.858Z,8.40
2018-09-10T11:52:43.210Z,8.00
2018-09-10T11:55:14.414Z,8.17
2018-09-10T11:57:45.594Z,8.63
2018-09-10T12:00:16.808Z,8.10
2018-09-10T12:02:47.990Z,7.77
2018-09-10T12:05:19.198Z,7.73
2018-09-10T12:07:50.482Z,7.60
2018-09-10T12:10:21.752Z,7.53
2018-09-10T12:12:52.767Z,7.85
2018-09-10T12:15:24.179Z,8.00
2018-09-10T12:17:55.529Z,7.50
2018-09-10T12:20:26.524Z,7.80
2018-09-10T12:22:57.513Z,7.83
2018-09-10T12:25:28.575Z,7.60
2018-09-10T12:28:00.760Z,7.83
2018-09-10T12:30:32.335Z,7.30
2018-09-10T12:33:03.764Z,7.17
2018-09-10T12:35:35.523Z,7.83
2018-09-10T12:38:06.972Z,6.90
2018-09-10T12:40:38.015Z,7.03
2018-09-10T12:43:09.180Z,7.33
2018-09-10T12:45:40.393Z,6.70
2018-09-10T12:48:11.618Z,6.30
2018-09-10T12:50:42.592Z,6.42
2018-09-10T12:53:13.856Z,6.17
2018-09-10T12:55:45.187Z,6.50
2018-09-10T12:58:16.151Z,6.40
2018-09-10T13:00:47.387Z,6.57
2018-09-10T13:03:18.339Z,6.23
2018-09-10T13:05:50.019Z,6.28
2018-09-10T13:08:21.439Z,7.15
2018-09-10T13:10:52.528Z,7.00
2018-09-10T13:13:23.703Z,6.20
2018-09-10T13:15:54.879Z,6.55
2018-09-10T13:18:26.112Z,6.25
2018-09-10T13:20:57.265Z,6.58
2018-09-10T13:23:28.511Z,6.67
2018-09-10T13:26:00.148Z,6.40
2018-09-10T13:28:31.255Z,5.97
2018-09-10T13:31:02.251Z,6.20
2018-09-10T13:33:33.424Z,6.40
2018-09-10T13:36:04.636Z,6.57
2018-09-10T13:38:35.665Z,6.30
2018-09-10T13:41:06.872Z,6.50
2018-09-10T13:43:38.221Z,6.97
2018-09-10T13:46:09.304Z,6.53
2018-09-10T13:48:40.467Z,6.63
2018-09-10T13:51:11.616Z,8.20
2018-09-10T13:53:42.944Z,6.77
2018-09-10T13:56:14.184Z,6.67
2018-09-10T13:58:45.140Z,6.80
2018-09-10T14:01:16.168Z,6.50
2018-09-10T14:03:47.615Z,6.57
2018-09-10T14:06:18.963Z,6.43
2018-09-10T14:08:50.979Z,6.50
2018-09-10T14:11:22.789Z,6.70
2018-09-10T14:13:54.079Z,6.30
2018-09-10T14:16:25.281Z,6.20
2018-09-10T14:18:56.346Z,6.17
2018-09-10T14:21:27.544Z,6.67
2018-09-10T14:23:58.645Z,6.30
2018-09-10T14:26:29.867Z,5.53
2018-09-10T14:29:01.019Z,5.70
2018-09-10T14:31:32.359Z,5.80
2018-09-10T14:34:03.973Z,6.30
2018-09-10T14:36:35.471Z,5.60
2018-09-10T14:39:07.983Z,6.20
2018-09-10T14:41:38.976Z,6.07
2018-09-10T14:44:10.343Z,6.37
2018-09-10T14:46:41.531Z,6.20
2018-09-10T14:49:12.716Z,6.27
2018-09-10T14:51:43.964Z,5.40
2018-09-10T14:54:15.131Z,5.40
2018-09-10T14:56:46.298Z,5.80
2018-09-10T14:59:17.291Z,5.67
2018-09-10T15:01:49.159Z,5.70
2018-09-10T15:04:20.674Z,6.47
2018-09-10T15:06:51.854Z,6.00
2018-09-10T15:09:23.096Z,6.20
2018-09-10T15:11:54.512Z,6.40
2018-09-10T15:14:25.645Z,5.70
2018-09-10T15:16:56.631Z,6.80
2018-09-10T15:19:27.800Z,6.00
2018-09-10T15:21:58.863Z,6.10
2018-09-10T15:24:30.079Z,6.50
2018-09-10T15:27:01.675Z,6.37
2018-09-10T15:29:32.967Z,6.57
2018-09-10T15:32:04.179Z,6.20
2018-09-10T15:34:35.902Z,6.40
2018-09-10T15:37:07.076Z,6.53
2018-09-10T15:39:38.222Z,6.47
2018-09-10T15:42:09.302Z,6.63
2018-09-10T15:44:40.524Z,6.60
2018-09-10T15:47:11.691Z,6.17
2018-09-10T15:49:42.943Z,6.80
2018-09-10T15:52:14.657Z,6.97
2018-09-10T15:54:45.855Z,6.67
2018-09-10T15:57:17.086Z,6.63
2018-09-10T15:59:48.556Z,6.57
2018-09-10T16:02:20.056Z,7.10
2018-09-10T16:04:51.238Z,7.03
2018-09-10T16:07:22.474Z,6.80
2018-09-10T16:09:54.100Z,6.67
2018-09-10T16:12:25.488Z,7.03
2018-09-10T16:14:56.805Z,6.70
2018-09-10T16:17:27.806Z,6.23
2018-09-10T16:19:59.085Z,6.63
2018-09-10T16:22:30.218Z,6.90
2018-09-10T16:25:01.543Z,7.20
2018-09-10T16:27:32.689Z,7.10
2018-09-10T16:30:04.241Z,7.40
2018-09-10T16:32:35.361Z,6.97
2018-09-10T16:35:06.619Z,6.87
2018-09-10T16:37:37.967Z,6.77
2018-09-10T16:40:09.161Z,6.90
2018-09-10T16:42:40.776Z,7.20
2018-09-10T16:45:12.101Z,6.87
2018-09-10T16:47:43.271Z,7.20
2018-09-10T16:50:14.287Z,6.80
2018-09-10T16:52:45.483Z,6.70
2018-09-10T16:55:16.642Z,7.03
2018-09-10T16:57:48.127Z,7.07
2018-09-10T17:00:19.699Z,6.90
2018-09-10T17:02:51.212Z,7.10
2018-09-10T17:05:22.896Z,7.13
2018-09-10T17:07:53.961Z,7.20
2018-09-10T17:10:25.183Z,7.00
2018-09-10T17:12:56.374Z,7.00
2018-09-10T17:15:27.369Z,6.90
2018-09-10T17:17:58.334Z,7.27
2018-09-10T17:20:29.575Z,6.73
2018-09-10T17:23:01.111Z,6.53
2018-09-10T17:25:32.350Z,7.10
2018-09-10T17:28:04.021Z,6.87
2018-09-10T17:30:35.568Z,7.40
2018-09-10T17:33:06.959Z,7.23
2018-09-10T17:35:38.258Z,6.77
2018-09-10T17:38:09.304Z,6.87
2018-09-10T17:40:40.447Z,7.10
2018-09-10T17:43:11.690Z,6.80
2018-09-10T17:45:43.066Z,8.13
2018-09-10T17:48:14.207Z,7.57
2018-09-10T17:50:45.499Z,6.40
2018-09-10T17:53:16.798Z,6.50
2018-09-10T17:55:48.194Z,6.70
2018-09-10T17:58:19.376Z,6.87
2018-09-10T18:00:50.664Z,6.40
2018-09-10T18:03:22.101Z,6.40
2018-09-10T18:05:53.167Z,6.60
2018-09-10T18:08:24.430Z,6.30
2018-09-10T18:10:55.740Z,6.17
2018-09-10T18:13:27.111Z,6.40
2018-09-10T18:15:58.307Z,6.80
2018-09-10T18:18:29.502Z,6.50
2018-09-10T18:21:00.696Z,6.40
2018-09-10T18:23:31.871Z,6.40
2018-09-10T18:26:03.103Z,6.70
2018-09-10T18:28:34.093Z,5.97
2018-09-10T18:31:05.319Z,6.70
2018-09-10T18:33:36.756Z,6.67
2018-09-10T18:36:08.227Z,6.20
2018-09-10T18:38:39.426Z,6.50
2018-09-10T18:41:10.635Z,6.70
2018-09-10T18:43:41.607Z,6.63
2018-09-10T18:46:12.818Z,7.10
2018-09-10T18:48:44.086Z,7.70
2018-09-10T18:51:15.370Z,7.67
2018-09-10T18:53:46.661Z,8.20
2018-09-10T18:56:17.946Z,7.30
2018-09-10T18:58:49.191Z,7.60
2018-09-10T19:01:21.127Z,7.40
2018-09-10T19:03:52.159Z,6.70
2018-09-10T19:06:23.799Z,7.20
2018-09-10T19:08:55.100Z,7.30
2018-09-10T19:11:26.291Z,7.80
2018-09-10T19:13:57.486Z,7.43
2018-09-10T19:16:28.500Z,7.10
2018-09-10T19:18:59.675Z,7.10
2018-09-10T19:21:30.888Z,7.33
2018-09-10T19:24:02.792Z,8.30
2018-09-10T19:26:34.034Z,7.63
2018-09-10T19:29:05.241Z,8.10
2018-09-10T19:31:36.727Z,8.03
2018-09-10T19:34:07.820Z,7.97
2018-09-10T19:36:38.881Z,6.93
2018-09-10T19:39:12.003Z,7.57
2018-09-10T19:41:43.351Z,7.80
2018-09-10T19:44:14.599Z,8.37
2018-09-10T19:46:45.733Z,7.70
2018-09-10T19:49:17.470Z,7.57
2018-09-10T19:51:48.556Z,7.60
2018-09-10T19:54:20.118Z,8.70
2018-09-10T19:56:51.307Z,7.67
2018-09-10T19:59:22.551Z,7.37
2018-09-10T20:01:54.091Z,7.97
2018-09-10T20:04:25.931Z,7.33
2018-09-10T20:06:57.702Z,7.43
2018-09-10T20:09:34.227Z,7.90
2018-09-10T20:12:06.008Z,7.43
2018-09-10T20:14:37.422Z,7.47
2018-09-10T20:17:08.635Z,7.63
2018-09-10T20:19:40.005Z,8.10
2018-09-10T20:22:16.913Z,7.63
2018-09-10T20:24:48.207Z,8.20
2018-09-10T20:27:19.371Z,8.03
2018-09-10T20:29:50.568Z,7.90
2018-09-10T20:32:21.596Z,7.57
2018-09-10T20:34:52.741Z,7.90
2018-09-10T20:37:23.987Z,8.00
2018-09-10T20:39:55.355Z,8.00
2018-09-10T20:42:26.507Z,7.43
2018-09-10T20:44:57.724Z,8.00
2018-09-10T20:47:29.194Z,8.17
2018-09-10T20:50:00.485Z,8.57
2018-09-10T20:52:31.482Z,9.07
2018-09-10T20:55:02.980Z,8.73
2018-09-10T20:57:34.402Z,8.10
2018-09-10T21:00:05.771Z,8.57
2018-09-10T21:02:37.235Z,8.97
2018-09-10T21:05:08.931Z,8.97
2018-09-10T21:07:40.713Z,8.43
2018-09-10T21:10:12.035Z,8.70
2018-09-10T21:12:43.174Z,9.40
2018-09-10T21:15:14.399Z,9.13
2018-09-10T21:17:45.631Z,9.10
2018-09-10T21:20:16.986Z,11.13
2018-09-10T21:22:48.499Z,10.40
2018-09-10T21:25:19.749Z,10.70
2018-09-10T21:27:51.090Z,9.67
2018-09-10T21:30:22.113Z,10.03
2018-09-10T21:32:53.468Z,9.23
2018-09-10T21:35:24.732Z,9.63
2018-09-10T21:37:55.909Z,9.50
2018-09-10T21:40:29.311Z,9.67
2018-09-10T21:43:01.007Z,9.20
2018-09-10T21:45:32.350Z,9.10
2018-09-10T21:48:03.624Z,9.20
2018-09-10T21:50:35.113Z,9.70
2018-09-10T21:53:08.042Z,9.60
2018-09-10T21:55:40.118Z,8.93
2018-09-10T21:58:11.158Z,9.80
2018-09-10T22:00:48.023Z,9.23
2018-09-10T22:03:19.236Z,9.53
2018-09-10T22:05:50.387Z,9.00
2018-09-10T22:08:21.722Z,9.60
2018-09-10T22:10:53.178Z,9.57
2018-09-10T22:13:24.362Z,9.60
2018-09-10T22:15:55.522Z,9.77
2018-09-10T22:18:27.021Z,9.60
2018-09-10T22:20:58.364Z,9.60
2018-09-10T22:23:29.546Z,9.50
2018-09-10T22:26:00.972Z,9.03
2018-09-10T22:28:33.142Z,9.20
2018-09-10T22:31:04.272Z,9.20
2018-09-10T22:33:51.401Z,9.17
2018-09-10T22:36:22.831Z,9.30
2018-09-10T22:38:54.092Z,9.30
2018-09-10T22:41:25.287Z,9.30
2018-09-10T22:43:57.256Z,9.30
2018-09-10T22:46:28.501Z,9.20
2018-09-10T22:49:00.015Z,10.00
2018-09-10T22:51:31.349Z,9.87
2018-09-10T22:54:02.501Z,9.37
2018-09-10T22:56:34.193Z,9.93
2018-09-10T22:59:05.298Z,9.47
2018-09-10T23:01:36.646Z,10.00
2018-09-10T23:04:07.830Z,9.40
2018-09-10T23:06:39.072Z,9.73
2018-09-10T23:09:10.544Z,9.90
2018-09-10T23:11:41.829Z,9.70
2018-09-10T23:14:12.876Z,9.90
2018-09-10T23:16:44.024Z,9.53
2018-09-10T23:19:15.610Z,9.53
2018-09-10T23:21:46.960Z,9.20
2018-09-10T23:24:18.168Z,9.97
2018-09-10T23:26:49.534Z,9.70
2018-09-10T23:29:20.694Z,9.87
2018-09-10T23:31:51.911Z,10.40
2018-09-10T23:34:22.958Z,10.03
2018-09-10T23:36:54.130Z,10.20
2018-09-10T23:39:25.344Z,9.80
2018-09-10T23:41:56.724Z,9.47
2018-09-10T23:44:28.078Z,10.30
2018-09-10T23:46:59.285Z,10.10
2018-09-10T23:49:33.437Z,10.67
2018-09-10T23:52:04.475Z,10.43
2018-09-10T23:54:35.623Z,10.13
2018-09-10T23:57:06.971Z,9.73
2018-09-10T23:59:38.227Z,10.60
